createdAt,value
2022-10-31T00:01:27.463Z,6.53
2022-10-31T00:03:54.854Z,7.32
2022-10-31T00:06:23.216Z,6.97
2022-10-31T00:08:55.973Z,6.18
2022-10-31T00:11:23.597Z,5.45
2022-10-31T00:13:50.837Z,6.65
2022-10-31T00:16:20.620Z,6.10
2022-10-31T00:18:56.677Z,6.70
2022-10-31T00:21:24.611Z,6.55
2022-10-31T00:23:52.048Z,6.15
2022-10-31T00:26:19.786Z,7.07
2022-10-31T00:28:47.096Z,6.40
2022-10-31T00:31:14.736Z,6.70
2022-10-31T00:33:43.151Z,6.00
2022-10-31T00:36:18.520Z,5.57
2022-10-31T00:38:46.767Z,6.07
2022-10-31T00:41:16.097Z,5.93
2022-10-31T00:43:44.109Z,5.93
2022-10-31T00:46:12.761Z,6.32
2022-10-31T00:48:40.158Z,6.30
2022-10-31T00:51:08.215Z,5.53
2022-10-31T00:53:35.717Z,5.43
2022-10-31T00:56:03.374Z,6.70
2022-10-31T00:58:30.658Z,6.25
2022-10-31T01:00:57.980Z,5.57
2022-10-31T01:03:30.997Z,5.55
2022-10-31T01:05:58.248Z,5.57
2022-10-31T01:08:25.894Z,4.97
2022-10-31T01:11:11.383Z,5.63
2022-10-31T01:13:40.703Z,5.68
2022-10-31T01:16:11.019Z,6.47
2022-10-31T01:18:38.396Z,5.93
2022-10-31T01:21:11.449Z,6.28
2022-10-31T01:23:38.889Z,6.13
2022-10-31T01:26:11.894Z,5.68
2022-10-31T01:28:52.969Z,5.05
2022-10-31T01:31:22.232Z,6.43
2022-10-31T01:33:49.789Z,6.65
2022-10-31T01:36:21.463Z,6.20
2022-10-31T01:38:54.431Z,7.80
2022-10-31T01:41:24.734Z,6.47
2022-10-31T01:44:00.441Z,7.57
2022-10-31T01:46:59.035Z,6.32
2022-10-31T01:49:49.727Z,6.15
2022-10-31T01:52:35.979Z,5.55
2022-10-31T01:55:12.526Z,6.75
2022-10-31T01:57:44.813Z,7.38
2022-10-31T02:00:12.740Z,6.95
2022-10-31T02:02:43.656Z,6.60
2022-10-31T02:05:16.924Z,6.70
2022-10-31T02:07:47.378Z,7.00
2022-10-31T02:10:14.738Z,6.82
2022-10-31T02:12:42.781Z,6.70
2022-10-31T02:15:11.348Z,6.72
2022-10-31T02:17:38.608Z,6.70
2022-10-31T02:20:24.947Z,5.97
2022-10-31T02:23:01.246Z,5.63
2022-10-31T02:25:37.528Z,6.25
2022-10-31T02:31:07.130Z,5.95
2022-10-31T02:33:39.279Z,6.13
2022-10-31T02:36:16.225Z,6.25
2022-10-31T02:39:03.759Z,6.03
2022-10-31T02:41:49.725Z,5.90
2022-10-31T02:44:34.464Z,6.18
2022-10-31T02:47:24.978Z,6.78
2022-10-31T02:50:09.558Z,6.43
2022-10-31T02:52:36.988Z,5.80
2022-10-31T02:55:23.497Z,5.35
2022-10-31T02:57:58.417Z,6.32
2022-10-31T03:00:28.064Z,6.50
2022-10-31T03:03:34.957Z,5.88
2022-10-31T03:06:17.699Z,6.63
2022-10-31T03:09:02.314Z,5.68
2022-10-31T03:11:38.783Z,5.90
2022-10-31T03:14:12.738Z,6.90
2022-10-31T03:16:49.358Z,6.13
2022-10-31T03:19:27.347Z,6.93
2022-10-31T03:22:03.154Z,6.13
2022-10-31T03:24:36.639Z,6.00
2022-10-31T03:27:08.317Z,7.50
2022-10-31T03:29:37.961Z,5.82
2022-10-31T03:32:21.282Z,6.35
2022-10-31T03:34:50.590Z,6.20
2022-10-31T03:37:21.626Z,6.13
2022-10-31T03:39:51.984Z,6.50
2022-10-31T03:42:25.139Z,6.40
2022-10-31T03:45:09.510Z,6.18
2022-10-31T03:47:38.541Z,7.10
2022-10-31T03:50:11.465Z,5.32
2022-10-31T03:52:48.470Z,6.40
2022-10-31T03:55:21.230Z,6.38
2022-10-31T03:57:51.515Z,6.75
2022-10-31T04:00:19.757Z,6.72
2022-10-31T04:03:01.513Z,6.15
2022-10-31T04:05:33.770Z,6.05
2022-10-31T04:08:06.893Z,5.80
2022-10-31T04:10:35.859Z,5.75
2022-10-31T04:13:10.656Z,6.00
2022-10-31T04:15:47.833Z,6.38
2022-10-31T04:18:16.161Z,5.30
2022-10-31T04:20:43.447Z,6.20
2022-10-31T04:23:21.499Z,6.22
2022-10-31T04:25:49.639Z,6.60
2022-10-31T04:30:46.561Z,5.38
2022-10-31T04:33:14.736Z,5.72
2022-10-31T04:35:43.550Z,6.03
2022-10-31T04:38:11.506Z,5.75
2022-10-31T04:40:40.228Z,5.47
2022-10-31T04:43:27.404Z,5.93
2022-10-31T04:45:54.723Z,5.70
2022-10-31T04:48:22.000Z,6.25
2022-10-31T04:50:49.535Z,5.93
2022-10-31T04:53:16.799Z,5.25
2022-10-31T04:56:04.244Z,5.75
2022-10-31T04:58:40.064Z,5.97
2022-10-31T05:01:10.658Z,5.38
2022-10-31T05:03:40.179Z,6.43
2022-10-31T05:06:08.372Z,5.90
2022-10-31T05:08:36.153Z,6.03
2022-10-31T05:11:06.217Z,5.57
2022-10-31T05:13:34.659Z,5.82
2022-10-31T05:16:13.874Z,6.40
2022-10-31T05:18:59.828Z,6.30
2022-10-31T05:21:55.862Z,6.47
2022-10-31T05:24:24.157Z,5.82
2022-10-31T05:26:51.428Z,6.30
2022-10-31T05:29:18.680Z,6.20
2022-10-31T05:31:45.920Z,7.65
2022-10-31T05:34:32.434Z,6.70
2022-10-31T05:37:17.464Z,6.25
2022-10-31T05:39:44.667Z,6.72
2022-10-31T05:42:15.660Z,6.72
2022-10-31T05:44:42.880Z,6.38
2022-10-31T05:47:19.300Z,6.45
2022-10-31T05:50:05.818Z,5.80
2022-10-31T05:53:02.608Z,6.80
2022-10-31T05:55:36.851Z,6.65
2022-10-31T05:58:09.640Z,6.72
2022-10-31T06:00:38.329Z,5.00
2022-10-31T06:05:54.934Z,5.85
2022-10-31T06:08:25.380Z,6.25
2022-10-31T06:10:54.717Z,7.10
2022-10-31T06:13:32.039Z,6.50
2022-10-31T06:16:04.727Z,6.03
2022-10-31T06:18:36.882Z,6.53
2022-10-31T06:21:04.494Z,6.10
2022-10-31T06:23:31.744Z,5.40
2022-10-31T06:26:18.890Z,5.50
2022-10-31T06:28:46.169Z,5.70
2022-10-31T06:31:25.777Z,6.47
2022-10-31T06:33:53.031Z,6.13
2022-10-31T06:36:20.420Z,5.57
2022-10-31T06:38:48.115Z,5.57
2022-10-31T06:41:18.644Z,5.57
2022-10-31T06:43:49.003Z,5.95
2022-10-31T06:46:42.434Z,5.70
2022-10-31T06:49:28.037Z,6.07
2022-10-31T06:51:58.061Z,5.30
2022-10-31T06:54:25.395Z,5.38
2022-10-31T06:56:52.617Z,6.22
2022-10-31T06:59:20.438Z,5.80
2022-10-31T07:02:11.278Z,6.40
2022-10-31T07:04:40.070Z,6.03
2022-10-31T07:07:08.284Z,5.75
2022-10-31T07:09:36.890Z,6.82
2022-10-31T07:12:05.523Z,5.80
2022-10-31T07:14:36.666Z,5.65
2022-10-31T07:17:04.001Z,5.97
2022-10-31T07:19:38.506Z,5.60
2022-10-31T07:22:05.710Z,7.35
2022-10-31T07:24:34.500Z,6.30
2022-10-31T07:27:10.845Z,5.68
2022-10-31T07:29:38.346Z,6.13
2022-10-31T07:32:05.705Z,6.53
2022-10-31T07:34:34.798Z,5.93
2022-10-31T07:37:22.313Z,5.72
2022-10-31T07:39:49.654Z,5.90
2022-10-31T07:42:17.359Z,5.85
2022-10-31T07:44:46.149Z,6.07
2022-10-31T07:47:44.521Z,6.47
2022-10-31T07:50:34.712Z,5.97
2022-10-31T07:53:10.646Z,6.50
2022-10-31T07:55:50.304Z,6.25
2022-10-31T07:58:20.386Z,6.50
2022-10-31T08:00:48.857Z,6.53
2022-10-31T08:03:24.478Z,6.63
2022-10-31T08:06:10.472Z,5.85
2022-10-31T08:08:46.732Z,5.90
2022-10-31T08:11:13.935Z,6.45
2022-10-31T08:13:41.217Z,5.57
2022-10-31T08:16:08.876Z,6.32
2022-10-31T08:18:43.471Z,6.55
2022-10-31T08:21:14.167Z,7.22
2022-10-31T08:23:43.184Z,6.05
2022-10-31T08:26:10.466Z,6.95
2022-10-31T08:28:38.248Z,6.53
2022-10-31T08:31:06.701Z,6.55
2022-10-31T08:33:39.585Z,5.40
2022-10-31T08:36:18.947Z,5.70
2022-10-31T08:38:51.848Z,6.93
2022-10-31T08:41:19.352Z,5.68
2022-10-31T08:43:47.698Z,5.90
2022-10-31T08:46:17.109Z,7.22
2022-10-31T08:48:45.331Z,6.18
2022-10-31T08:51:13.318Z,5.55
2022-10-31T08:53:40.739Z,5.28
2022-10-31T08:56:40.250Z,5.47
2022-10-31T08:59:24.362Z,5.53
2022-10-31T09:02:11.612Z,5.68
2022-10-31T09:04:39.355Z,6.57
2022-10-31T09:07:22.054Z,5.78
2022-10-31T09:09:49.821Z,5.63
2022-10-31T09:12:19.255Z,5.90
2022-10-31T09:15:07.396Z,5.68
2022-10-31T09:17:55.095Z,5.43
2022-10-31T09:20:46.147Z,6.28
2022-10-31T09:23:19.222Z,6.15
2022-10-31T09:25:50.714Z,6.03
2022-10-31T09:28:48.241Z,6.18
2022-10-31T09:31:18.362Z,6.32
2022-10-31T09:33:48.475Z,6.93
2022-10-31T09:36:34.184Z,5.80
2022-10-31T09:39:01.644Z,5.90
2022-10-31T09:41:39.254Z,5.70
2022-10-31T09:44:26.468Z,5.80
2022-10-31T09:46:58.848Z,6.07
2022-10-31T09:49:38.885Z,6.55
2022-10-31T09:54:50.321Z,6.30
2022-10-31T09:57:33.700Z,6.15
2022-10-31T10:00:01.870Z,6.57
2022-10-31T10:02:47.746Z,7.30
2022-10-31T10:05:21.810Z,5.97
2022-10-31T10:08:17.685Z,6.15
2022-10-31T10:11:36.178Z,6.55
2022-10-31T10:14:18.535Z,6.47
2022-10-31T10:16:45.702Z,6.78
2022-10-31T10:19:30.977Z,6.00
2022-10-31T10:22:14.347Z,6.13
2022-10-31T10:25:00.102Z,6.00
2022-10-31T10:27:49.052Z,6.00
2022-10-31T10:30:44.377Z,6.82
2022-10-31T10:33:26.491Z,6.05
2022-10-31T10:36:04.527Z,6.28
2022-10-31T10:38:53.293Z,5.38
2022-10-31T10:41:23.371Z,6.57
2022-10-31T10:43:52.211Z,5.47
2022-10-31T10:46:50.441Z,6.45
2022-10-31T10:49:37.838Z,5.45
2022-10-31T10:52:50.265Z,5.13
2022-10-31T10:55:49.198Z,5.22
2022-10-31T10:58:17.126Z,6.22
2022-10-31T11:00:48.763Z,5.82
2022-10-31T11:03:17.654Z,5.55
2022-10-31T11:05:59.360Z,4.68
2022-10-31T11:08:31.952Z,5.10
2022-10-31T11:11:05.131Z,4.65
2022-10-31T11:13:34.452Z,5.07
2022-10-31T11:16:06.617Z,4.60
2022-10-31T11:18:38.243Z,4.80
2022-10-31T11:21:06.346Z,4.97
2022-10-31T11:23:34.360Z,4.65
2022-10-31T11:26:19.299Z,5.07
2022-10-31T11:28:57.591Z,5.20
2022-10-31T11:31:26.588Z,4.88
2022-10-31T11:34:01.052Z,4.35
2022-10-31T11:36:30.345Z,4.72
2022-10-31T11:38:59.925Z,5.15
2022-10-31T11:41:33.595Z,5.20
2022-10-31T11:44:02.381Z,5.40
2022-10-31T11:46:40.090Z,4.95
2022-10-31T11:49:17.931Z,4.30
2022-10-31T11:51:50.405Z,5.30
2022-10-31T11:54:26.773Z,4.63
2022-10-31T11:56:54.178Z,5.10
2022-10-31T11:59:30.132Z,4.43
2022-10-31T12:02:02.665Z,5.20
2022-10-31T12:04:42.998Z,3.78
2022-10-31T12:07:10.396Z,4.82
2022-10-31T12:09:38.935Z,5.10
2022-10-31T12:12:19.048Z,4.25
2022-10-31T12:15:05.157Z,4.45
2022-10-31T12:17:51.348Z,4.85
2022-10-31T12:20:38.665Z,4.78
2022-10-31T12:23:27.131Z,3.72
2022-10-31T12:26:14.595Z,4.57
2022-10-31T12:28:49.846Z,4.35
2022-10-31T12:31:21.421Z,3.67
2022-10-31T12:34:11.267Z,4.63
2022-10-31T12:37:00.349Z,3.72
2022-10-31T12:40:14.416Z,4.05
2022-10-31T12:42:53.605Z,3.60
2022-10-31T12:45:55.469Z,3.75
2022-10-31T12:48:42.931Z,3.67
2022-10-31T12:51:20.585Z,3.60
2022-10-31T12:53:56.946Z,4.20
2022-10-31T12:56:37.473Z,3.25
2022-10-31T12:59:04.703Z,4.65
2022-10-31T13:01:38.189Z,4.40
2022-10-31T13:04:20.687Z,4.28
2022-10-31T13:06:58.487Z,4.85
2022-10-31T13:09:48.819Z,3.72
2022-10-31T13:12:19.808Z,4.03
2022-10-31T13:14:53.821Z,3.55
2022-10-31T13:17:42.433Z,4.10
2022-10-31T13:20:27.716Z,3.25
2022-10-31T13:23:02.391Z,3.67
2022-10-31T13:25:38.517Z,5.00
2022-10-31T13:28:39.730Z,3.75
2022-10-31T13:31:07.247Z,4.05
2022-10-31T13:34:03.769Z,4.03
2022-10-31T13:36:41.245Z,4.25
2022-10-31T13:39:55.323Z,4.03
2022-10-31T13:42:40.449Z,3.60
2022-10-31T13:45:19.679Z,4.13
2022-10-31T13:48:01.827Z,3.85
2022-10-31T13:50:31.581Z,3.90
2022-10-31T13:53:18.263Z,4.07
2022-10-31T13:55:49.164Z,3.90
2022-10-31T13:58:26.405Z,3.55
2022-10-31T14:01:12.148Z,3.42
2022-10-31T14:07:05.311Z,3.40
2022-10-31T14:09:35.442Z,3.65
2022-10-31T14:12:24.490Z,4.57
2022-10-31T14:14:56.495Z,3.58
2022-10-31T14:17:34.113Z,3.70
2022-10-31T14:20:22.603Z,3.80
2022-10-31T14:22:50.131Z,4.05
2022-10-31T14:25:35.397Z,3.92
2022-10-31T14:28:19.774Z,4.63
2022-10-31T14:30:59.362Z,3.75
2022-10-31T14:33:31.825Z,4.20
2022-10-31T14:36:19.973Z,3.80
2022-10-31T14:38:56.951Z,4.13
2022-10-31T14:41:48.546Z,3.50
2022-10-31T14:44:53.212Z,3.42
2022-10-31T14:47:36.552Z,3.40
2022-10-31T14:50:30.637Z,3.53
2022-10-31T14:53:01.704Z,3.97
2022-10-31T14:55:29.978Z,3.75
2022-10-31T14:58:02.275Z,3.58
2022-10-31T15:00:32.175Z,3.28
2022-10-31T15:03:14.707Z,3.78
2022-10-31T15:05:46.821Z,5.15
2022-10-31T15:08:34.051Z,4.28
2022-10-31T15:11:13.267Z,4.05
2022-10-31T15:13:51.577Z,3.97
2022-10-31T15:16:24.114Z,3.05
2022-10-31T15:18:58.235Z,4.10
2022-10-31T15:21:29.180Z,5.32
2022-10-31T15:23:59.189Z,5.25
2022-10-31T15:26:38.658Z,5.32
2022-10-31T15:29:16.299Z,3.30
2022-10-31T15:31:54.373Z,3.67
2022-10-31T15:34:41.675Z,3.83
2022-10-31T15:37:20.223Z,4.57
2022-10-31T15:39:49.015Z,4.22
2022-10-31T15:42:35.770Z,4.03
2022-10-31T15:45:06.356Z,3.78
2022-10-31T15:47:34.540Z,3.88
2022-10-31T15:50:03.360Z,4.35
2022-10-31T15:52:47.928Z,3.20
2022-10-31T15:55:17.633Z,3.35
2022-10-31T15:57:48.009Z,4.78
2022-10-31T16:00:29.021Z,4.40
2022-10-31T16:03:09.117Z,5.28
2022-10-31T16:05:50.896Z,4.20
2022-10-31T16:08:30.394Z,4.07
2022-10-31T16:11:23.309Z,3.92
2022-10-31T16:14:17.158Z,4.55
2022-10-31T16:16:50.209Z,3.33
2022-10-31T16:19:20.820Z,3.50
2022-10-31T16:21:52.636Z,3.95
2022-10-31T16:24:32.749Z,3.40
2022-10-31T16:27:15.495Z,3.95
2022-10-31T16:29:45.213Z,3.92
2022-10-31T16:32:33.565Z,3.83
2022-10-31T16:35:10.134Z,3.60
2022-10-31T16:37:44.404Z,4.47
2022-10-31T16:40:15.982Z,4.43
2022-10-31T16:42:44.569Z,5.25
2022-10-31T16:45:21.220Z,4.78
2022-10-31T16:47:49.378Z,5.82
2022-10-31T16:50:23.087Z,5.63
2022-10-31T16:55:58.110Z,5.07
2022-10-31T16:58:27.974Z,4.45
2022-10-31T17:00:55.402Z,3.90
2022-10-31T17:03:23.465Z,4.00
2022-10-31T17:05:50.909Z,3.97
2022-10-31T17:08:18.261Z,3.65
2022-10-31T17:10:47.769Z,3.70
2022-10-31T17:13:20.748Z,5.43
2022-10-31T17:15:52.252Z,4.18
2022-10-31T17:18:25.907Z,4.50
2022-10-31T17:21:03.190Z,4.28
2022-10-31T17:23:30.527Z,3.50
2022-10-31T17:25:57.855Z,3.70
2022-10-31T17:28:26.697Z,3.80
2022-10-31T17:30:59.126Z,4.32
2022-10-31T17:33:26.849Z,3.88
2022-10-31T17:35:54.234Z,4.18
2022-10-31T17:38:21.738Z,4.30
2022-10-31T17:43:21.247Z,3.97
2022-10-31T17:45:48.458Z,3.92
2022-10-31T17:48:15.739Z,4.00
2022-10-31T17:50:42.956Z,3.90
2022-10-31T17:53:10.194Z,3.80
2022-10-31T17:55:37.837Z,4.15
2022-10-31T17:58:05.738Z,3.72
2022-10-31T18:00:33.284Z,4.28
2022-10-31T18:03:03.336Z,4.60
2022-10-31T18:05:31.039Z,4.63
2022-10-31T18:08:02.429Z,4.47
2022-10-31T18:10:31.599Z,4.85
2022-10-31T18:12:59.316Z,5.78
2022-10-31T18:15:26.734Z,4.93
2022-10-31T18:17:53.988Z,5.57
2022-10-31T18:20:21.231Z,4.47
2022-10-31T18:22:48.412Z,5.30
2022-10-31T18:25:15.620Z,5.20
2022-10-31T18:27:42.838Z,5.00
2022-10-31T18:30:10.467Z,4.50
2022-10-31T18:32:37.808Z,4.75
2022-10-31T18:35:05.348Z,4.30
2022-10-31T18:37:32.595Z,4.22
2022-10-31T18:39:59.845Z,4.22
2022-10-31T18:42:27.137Z,4.55
2022-10-31T18:44:54.433Z,4.38
2022-10-31T18:47:21.730Z,3.90
2022-10-31T18:49:48.946Z,4.82
2022-10-31T18:52:16.195Z,4.25
2022-10-31T18:54:44.667Z,3.90
2022-10-31T18:57:11.946Z,4.20
2022-10-31T18:59:39.160Z,5.10
2022-10-31T19:02:06.801Z,4.85
2022-10-31T19:04:34.247Z,4.35
2022-10-31T19:07:01.535Z,4.22
2022-10-31T19:09:30.882Z,4.25
2022-10-31T19:11:58.070Z,4.40
2022-10-31T19:14:25.330Z,4.45
2022-10-31T19:16:52.953Z,4.43
2022-10-31T19:19:20.920Z,4.10
2022-10-31T19:21:48.118Z,4.63
2022-10-31T19:24:15.382Z,4.60
2022-10-31T19:26:42.667Z,4.35
2022-10-31T19:29:10.515Z,4.63
2022-10-31T19:31:37.732Z,4.47
2022-10-31T19:34:05.131Z,4.88
2022-10-31T19:36:32.337Z,5.45
2022-10-31T19:38:59.558Z,4.70
2022-10-31T19:41:28.349Z,4.75
2022-10-31T19:43:56.088Z,4.45
2022-10-31T19:49:11.871Z,4.18
2022-10-31T19:51:39.122Z,4.18
2022-10-31T19:54:07.652Z,4.65
2022-10-31T19:56:34.826Z,4.47
2022-10-31T19:59:03.948Z,4.20
2022-10-31T20:01:31.233Z,4.15
2022-10-31T20:03:58.630Z,4.53
2022-10-31T20:06:29.275Z,4.57
2022-10-31T20:08:56.700Z,4.55
2022-10-31T20:11:26.285Z,4.22
2022-10-31T20:13:58.234Z,5.00
2022-10-31T20:16:26.657Z,4.68
2022-10-31T20:18:54.822Z,4.50
2022-10-31T20:21:24.995Z,4.05
2022-10-31T20:23:57.246Z,4.95
2022-10-31T20:26:24.838Z,4.20
2022-10-31T20:28:52.365Z,4.18
2022-10-31T20:31:22.681Z,4.28
2022-10-31T20:33:50.124Z,3.70
2022-10-31T20:36:19.669Z,4.97
2022-10-31T20:38:47.591Z,4.05
2022-10-31T20:41:16.018Z,5.25
2022-10-31T20:43:44.139Z,4.63
2022-10-31T20:46:14.825Z,4.70
2022-10-31T20:48:42.046Z,4.80
2022-10-31T20:51:17.718Z,4.32
2022-10-31T20:53:45.553Z,4.95
2022-10-31T20:56:15.737Z,4.53
2022-10-31T20:58:44.311Z,4.60
2022-10-31T21:01:17.455Z,4.15
2022-10-31T21:03:45.758Z,4.97
2022-10-31T21:06:13.386Z,5.38
2022-10-31T21:08:41.787Z,4.43
2022-10-31T21:11:14.404Z,4.78
2022-10-31T21:13:43.434Z,4.90
2022-10-31T21:16:23.475Z,6.07
2022-10-31T21:18:51.859Z,4.45
2022-10-31T21:21:32.108Z,4.55
2022-10-31T21:24:06.445Z,4.50
2022-10-31T21:26:37.362Z,4.03
2022-10-31T21:29:06.179Z,4.72
2022-10-31T21:31:34.963Z,3.70
2022-10-31T21:34:02.482Z,4.57
2022-10-31T21:36:29.793Z,4.55
2022-10-31T21:38:57.469Z,4.40
2022-10-31T21:41:25.825Z,4.78
2022-10-31T21:43:57.049Z,4.28
2022-10-31T21:46:33.064Z,5.13
2022-10-31T21:49:02.718Z,4.47
2022-10-31T21:51:33.114Z,4.65
2022-10-31T21:54:19.054Z,4.18
2022-10-31T21:56:46.920Z,5.05
2022-10-31T21:59:14.160Z,4.45
2022-10-31T22:01:41.608Z,4.53
2022-10-31T22:04:08.898Z,4.85
2022-10-31T22:06:36.802Z,4.35
2022-10-31T22:09:06.320Z,3.80
2022-10-31T22:11:34.437Z,4.72
2022-10-31T22:14:02.734Z,4.47
2022-10-31T22:16:31.006Z,4.35
2022-10-31T22:18:59.962Z,4.55
2022-10-31T22:21:28.742Z,5.43
2022-10-31T22:24:03.273Z,3.97
2022-10-31T22:26:32.736Z,4.22
2022-10-31T22:29:03.456Z,3.60
2022-10-31T22:31:32.258Z,4.82
2022-10-31T22:34:00.028Z,3.97
2022-10-31T22:36:29.721Z,4.68
2022-10-31T22:38:57.457Z,4.18
2022-10-31T22:41:27.053Z,4.70
2022-10-31T22:43:55.705Z,4.88
2022-10-31T22:46:30.853Z,4.75
2022-10-31T22:49:11.020Z,4.32
2022-10-31T22:51:39.652Z,4.45
2022-10-31T22:54:15.901Z,4.47
2022-10-31T22:56:43.346Z,4.05
2022-10-31T22:59:15.729Z,4.10
2022-10-31T23:01:45.623Z,4.18
2022-10-31T23:04:14.720Z,4.38
2022-10-31T23:06:42.120Z,4.57
2022-10-31T23:09:13.939Z,4.85
2022-10-31T23:11:41.275Z,5.25
2022-10-31T23:14:14.188Z,4.85
2022-10-31T23:16:55.909Z,4.57
2022-10-31T23:19:26.360Z,4.95
2022-10-31T23:22:03.994Z,4.43
2022-10-31T23:24:42.552Z,4.53
2022-10-31T23:27:19.513Z,4.47
2022-10-31T23:29:46.709Z,4.25
2022-10-31T23:32:25.858Z,5.18
2022-10-31T23:34:56.060Z,4.50
2022-10-31T23:37:26.330Z,4.50
2022-10-31T23:39:54.143Z,4.30
2022-10-31T23:42:22.484Z,4.82
2022-10-31T23:44:50.007Z,4.32
2022-10-31T23:47:17.915Z,4.53
2022-10-31T23:49:45.698Z,4.45
2022-10-31T23:52:13.618Z,3.92
2022-10-31T23:54:40.852Z,3.90
2022-10-31T23:57:09.842Z,4.82
2022-10-31T23:59:37.136Z,4.25
